^^
Saratoga-Weather Station Historical Data
Daily Summary for February 22, 2020 Units:  Both    English   Metric
Daily Weekly Monthly Yearly Custom
  High: Low: Average:
Temperature: 82.2 °F /  27.9 °C 56.3 °F /  13.5 °C 69.4 °F /  20.8 °C
Dew Point: 52.5 °F /  11.4 °C 44.8 °F /  7.1 °C 47.3 °F /  8.5 °C
Humidity: 68% 28% 48%
Wind Speed: 9mph /  14.5km/h - 1.7mph /  2.8km/h
Wind Gust: 12mph /  19.3km/h - -
Wind- - SSW
Pressure: 30.2 in /  1022.0 hPa 30 in /  1016.3 hPa -
Precipitation: 0 in /  0.0 mm    
Historical Graphs
 
 
Tabular Data for February 22, 2020
Time Temperature Dew Point Pressure Wind Wind Speed Wind Gust Humidity Rainfall Rate (Hourly) solar
00:02 64.8 °F /  18.2 °C 45.1 °F /  7.3 °C 30.2in /  1021.3hPa SSW 0.9mph /  1.4km/h 1mph /  1.6km/h 49% 0in /  0.0mm 0 W/m2
00:07 64.6 °F /  18.1 °C 45.5 °F /  7.5 °C 30.2in /  1021.3hPa Calm   2mph /  3.2km/h 50% 0in /  0.0mm 0 W/m2
00:12 64.2 °F /  17.9 °C 45.1 °F /  7.3 °C 30.2in /  1021.3hPa Calm   1mph /  1.6km/h 50% 0in /  0.0mm 0 W/m2
00:17 64 °F /  17.8 °C 45.5 °F /  7.5 °C 30.2in /  1021.3hPa East 2mph /  3.2km/h 2mph /  3.2km/h 51% 0in /  0.0mm 0 W/m2
00:22 63.9 °F /  17.7 °C 45.3 °F /  7.4 °C 30.2in /  1021.3hPa Calm     51% 0in /  0.0mm 0 W/m2
00:27 63.3 °F /  17.4 °C 45 °F /  7.2 °C 30.2in /  1021.3hPa NE 0.9mph /  1.4km/h 3mph /  4.8km/h 51% 0in /  0.0mm 0 W/m2
00:32 63.3 °F /  17.4 °C 45 °F /  7.2 °C 30.2in /  1021.3hPa NE 0.9mph /  1.4km/h 2mph /  3.2km/h 51% 0in /  0.0mm 0 W/m2
00:37 63.1 °F /  17.3 °C 45.1 °F /  7.3 °C 30.2in /  1021.3hPa South 0.9mph /  1.4km/h 3mph /  4.8km/h 52% 0in /  0.0mm 0 W/m2
00:42 63.1 °F /  17.3 °C 45.1 °F /  7.3 °C 30.2in /  1021.7hPa Calm     52% 0in /  0.0mm 0 W/m2
00:47 62.8 °F /  17.1 °C 45.3 °F /  7.4 °C 30.2in /  1021.3hPa SSW 0.9mph /  1.4km/h 3mph /  4.8km/h 53% 0in /  0.0mm 0 W/m2
00:52 62.4 °F /  16.9 °C 45.1 °F /  7.3 °C 30.2in /  1021.7hPa Calm   2mph /  3.2km/h 53% 0in /  0.0mm 0 W/m2
00:57 62.2 °F /  16.8 °C 45 °F /  7.2 °C 30.2in /  1021.7hPa WSW 0.9mph /  1.4km/h 3mph /  4.8km/h 53% 0in /  0.0mm 0 W/m2
01:02 62.2 °F /  16.8 °C 45 °F /  7.2 °C 30.2in /  1021.7hPa Calm   1mph /  1.6km/h 53% 0in /  0.0mm 0 W/m2
01:07 62.2 °F /  16.8 °C 45 °F /  7.2 °C 30.2in /  1021.7hPa Calm   4mph /  6.4km/h 53% 0in /  0.0mm 0 W/m2
01:12 62.1 °F /  16.7 °C 45.1 °F /  7.3 °C 30.2in /  1021.7hPa Calm   1mph /  1.6km/h 54% 0in /  0.0mm 0 W/m2
01:17 62.1 °F /  16.7 °C 45.7 °F /  7.6 °C 30.2in /  1021.7hPa SE 0.9mph /  1.4km/h 4mph /  6.4km/h 55% 0in /  0.0mm 0 W/m2
01:22 61.9 °F /  16.6 °C 45.5 °F /  7.5 °C 30.2in /  1021.7hPa WSW 2.9mph /  4.7km/h 3mph /  4.8km/h 55% 0in /  0.0mm 0 W/m2
01:27 61.3 °F /  16.3 °C 45 °F /  7.2 °C 30.2in /  1021.7hPa NW 0.9mph /  1.4km/h 2mph /  3.2km/h 55% 0in /  0.0mm 0 W/m2
01:32 61.2 °F /  16.2 °C 45.3 °F /  7.4 °C 30.2in /  1021.7hPa Calm   1mph /  1.6km/h 56% 0in /  0.0mm 0 W/m2
01:37 61 °F /  16.1 °C 45.7 °F /  7.6 °C 30.2in /  1021.7hPa Calm     57% 0in /  0.0mm 0 W/m2
01:42 60.6 °F /  15.9 °C 45.3 °F /  7.4 °C 30.2in /  1021.7hPa Calm   1mph /  1.6km/h 57% 0in /  0.0mm 0 W/m2
01:47 60.3 °F /  15.7 °C 45.5 °F /  7.5 °C 30.2in /  1022.0hPa SSW 0.9mph /  1.4km/h 2mph /  3.2km/h 58% 0in /  0.0mm 0 W/m2
01:52 59.9 °F /  15.5 °C 45.5 °F /  7.5 °C 30.2in /  1022.0hPa SSW 0.9mph /  1.4km/h 1mph /  1.6km/h 59% 0in /  0.0mm 0 W/m2
01:57 59.5 °F /  15.3 °C 45.1 °F /  7.3 °C 30.2in /  1022.0hPa Calm   1mph /  1.6km/h 59% 0in /  0.0mm 0 W/m2
02:03 59.4 °F /  15.2 °C 45.5 °F /  7.5 °C 30.2in /  1022.0hPa Calm   1mph /  1.6km/h 60% 0in /  0.0mm 0 W/m2
02:08 59.2 °F /  15.1 °C 45.3 °F /  7.4 °C 30.2in /  1022.0hPa SSW 0.9mph /  1.4km/h 1mph /  1.6km/h 60% 0in /  0.0mm 0 W/m2
02:13 59 °F /  15 °C 45.5 °F /  7.5 °C 30.2in /  1022.0hPa SSW 0.9mph /  1.4km/h 1mph /  1.6km/h 61% 0in /  0.0mm 0 W/m2
02:18 58.6 °F /  14.8 °C 45.3 °F /  7.4 °C 30.2in /  1022.0hPa Calm   1mph /  1.6km/h 61% 0in /  0.0mm 0 W/m2
02:23 58.6 °F /  14.8 °C 45.3 °F /  7.4 °C 30.2in /  1021.7hPa WSW 2mph /  3.2km/h 2mph /  3.2km/h 61% 0in /  0.0mm 0 W/m2
02:28 58.6 °F /  14.8 °C 45.3 °F /  7.4 °C 30.2in /  1022.0hPa West 6mph /  9.7km/h 6mph /  9.7km/h 61% 0in /  0.0mm 0 W/m2
02:33 59.2 °F /  15.1 °C 45.3 °F /  7.4 °C 30.2in /  1021.7hPa NW 2mph /  3.2km/h 2mph /  3.2km/h 60% 0in /  0.0mm 0 W/m2
02:38 59.5 °F /  15.3 °C 45.1 °F /  7.3 °C 30.2in /  1021.7hPa West 0.9mph /  1.4km/h 2mph /  3.2km/h 59% 0in /  0.0mm 0 W/m2
02:43 59.5 °F /  15.3 °C 45.1 °F /  7.3 °C 30.2in /  1021.7hPa SW 2mph /  3.2km/h 3mph /  4.8km/h 59% 0in /  0.0mm 0 W/m2
02:48 59.4 °F /  15.2 °C 45.5 °F /  7.5 °C 30.2in /  1021.7hPa WSW 0.9mph /  1.4km/h 1mph /  1.6km/h 60% 0in /  0.0mm 0 W/m2
02:53 59.4 °F /  15.2 °C 45.5 °F /  7.5 °C 30.2in /  1021.7hPa SW 3mph /  4.8km/h 3mph /  4.8km/h 60% 0in /  0.0mm 0 W/m2
02:58 59.2 °F /  15.1 °C 45.3 °F /  7.4 °C 30.2in /  1021.7hPa Calm   3mph /  4.8km/h 60% 0in /  0.0mm 0 W/m2
03:03 58.8 °F /  14.9 °C 45 °F /  7.2 °C 30.2in /  1021.7hPa SW 0.9mph /  1.4km/h 2mph /  3.2km/h 60% 0in /  0.0mm 0 W/m2
03:08 58.8 °F /  14.9 °C 45.3 °F /  7.4 °C 30.2in /  1021.7hPa WSW 0.9mph /  1.4km/h 4mph /  6.4km/h 61% 0in /  0.0mm 0 W/m2
03:13 58.6 °F /  14.8 °C 45.3 °F /  7.4 °C 30.2in /  1021.7hPa WSW 0.9mph /  1.4km/h 2mph /  3.2km/h 61% 0in /  0.0mm 0 W/m2
03:18 58.6 °F /  14.8 °C 45.3 °F /  7.4 °C 30.2in /  1021.7hPa West 2mph /  3.2km/h 3mph /  4.8km/h 61% 0in /  0.0mm 0 W/m2
03:23 58.6 °F /  14.8 °C 45.3 °F /  7.4 °C 30.2in /  1021.7hPa West 0.9mph /  1.4km/h 2mph /  3.2km/h 61% 0in /  0.0mm 0 W/m2
03:28 58.5 °F /  14.7 °C 45.1 °F /  7.3 °C 30.2in /  1021.7hPa West 0.9mph /  1.4km/h 2mph /  3.2km/h 61% 0in /  0.0mm 0 W/m2
03:33 58.6 °F /  14.8 °C 45.3 °F /  7.4 °C 30.2in /  1021.7hPa Calm   1mph /  1.6km/h 61% 0in /  0.0mm 0 W/m2
03:38 58.6 °F /  14.8 °C 45.3 °F /  7.4 °C 30.2in /  1021.7hPa Calm   1mph /  1.6km/h 61% 0in /  0.0mm 0 W/m2
03:43 58.5 °F /  14.7 °C 45.5 °F /  7.5 °C 30.2in /  1021.7hPa Calm   1mph /  1.6km/h 62% 0in /  0.0mm 0 W/m2
03:48 58.3 °F /  14.6 °C 45.3 °F /  7.4 °C 30.2in /  1021.7hPa Calm   2mph /  3.2km/h 62% 0in /  0.0mm 0 W/m2
03:53 57.9 °F /  14.4 °C 45 °F /  7.2 °C 30.2in /  1021.7hPa West 0.9mph /  1.4km/h 1mph /  1.6km/h 62% 0in /  0.0mm 0 W/m2
03:58 57.7 °F /  14.3 °C 45.3 °F /  7.4 °C 30.2in /  1021.7hPa West 0.9mph /  1.4km/h 1mph /  1.6km/h 63% 0in /  0.0mm 0 W/m2
04:03 57.7 °F /  14.3 °C 45.3 °F /  7.4 °C 30.2in /  1021.7hPa West 2.9mph /  4.7km/h 3mph /  4.8km/h 63% 0in /  0.0mm 0 W/m2
04:08 57.7 °F /  14.3 °C 45.3 °F /  7.4 °C 30.2in /  1021.7hPa Calm   1mph /  1.6km/h 63% 0in /  0.0mm 0 W/m2
04:13 57.9 °F /  14.4 °C 45.3 °F /  7.4 °C 30.2in /  1021.7hPa WNW 2mph /  3.2km/h 2mph /  3.2km/h 63% 0in /  0.0mm 0 W/m2
04:18 58.1 °F /  14.5 °C 45.1 °F /  7.3 °C 30.2in /  1021.7hPa WNW 0.9mph /  1.4km/h 2mph /  3.2km/h 62% 0in /  0.0mm 0 W/m2
04:23 57.9 °F /  14.4 °C 45 °F /  7.2 °C 30.2in /  1021.3hPa West 0.9mph /  1.4km/h 2mph /  3.2km/h 62% 0in /  0.0mm 0 W/m2
04:28 57.9 °F /  14.4 °C 45.3 °F /  7.4 °C 30.2in /  1021.3hPa West 0.9mph /  1.4km/h 2mph /  3.2km/h 63% 0in /  0.0mm 0 W/m2
04:33 57.7 °F /  14.3 °C 45.3 °F /  7.4 °C 30.2in /  1021.3hPa South 0.9mph /  1.4km/h 1mph /  1.6km/h 63% 0in /  0.0mm 0 W/m2
04:38 57.6 °F /  14.2 °C 45.1 °F /  7.3 °C 30.2in /  1021.3hPa South 0.9mph /  1.4km/h 2mph /  3.2km/h 63% 0in /  0.0mm 0 W/m2
04:43 57.4 °F /  14.1 °C 45 °F /  7.2 °C 30.2in /  1021.3hPa South 2mph /  3.2km/h 2mph /  3.2km/h 63% 0in /  0.0mm 0 W/m2
04:48 57 °F /  13.9 °C 45 °F /  7.2 °C 30.2in /  1021.3hPa Calm   1mph /  1.6km/h 64% 0in /  0.0mm 0 W/m2
04:53 56.8 °F /  13.8 °C 44.8 °F /  7.1 °C 30.2in /  1021.3hPa South 0.9mph /  1.4km/h 2mph /  3.2km/h 64% 0in /  0.0mm 0 W/m2
04:58 56.7 °F /  13.7 °C 45 °F /  7.2 °C 30.2in /  1021.3hPa Calm   2mph /  3.2km/h 65% 0in /  0.0mm 0 W/m2
05:03 56.5 °F /  13.6 °C 44.8 °F /  7.1 °C 30.2in /  1021.3hPa Calm   2mph /  3.2km/h 65% 0in /  0.0mm 0 W/m2
05:08 56.7 °F /  13.7 °C 45 °F /  7.2 °C 30.2in /  1021.3hPa WSW 2mph /  3.2km/h 2mph /  3.2km/h 65% 0in /  0.0mm 0 W/m2
05:13 56.7 °F /  13.7 °C 45 °F /  7.2 °C 30.2in /  1021.3hPa West 2mph /  3.2km/h 2mph /  3.2km/h 65% 0in /  0.0mm 0 W/m2
05:18 57 °F /  13.9 °C 45 °F /  7.2 °C 30.2in /  1021.3hPa South 2mph /  3.2km/h 4mph /  6.4km/h 64% 0in /  0.0mm 0 W/m2
05:23 57 °F /  13.9 °C 45 °F /  7.2 °C 30.2in /  1021.3hPa Calm   1mph /  1.6km/h 64% 0in /  0.0mm 0 W/m2
05:28 57 °F /  13.9 °C 45.3 °F /  7.4 °C 30.2in /  1021.3hPa South 0.9mph /  1.4km/h 4mph /  6.4km/h 65% 0in /  0.0mm 0 W/m2
05:33 56.8 °F /  13.8 °C 45.1 °F /  7.3 °C 30.2in /  1021.3hPa Calm   1mph /  1.6km/h 65% 0in /  0.0mm 0 W/m2
05:38 56.8 °F /  13.8 °C 45.1 °F /  7.3 °C 30.2in /  1021.3hPa West 0.9mph /  1.4km/h 2mph /  3.2km/h 65% 0in /  0.0mm 0 W/m2
05:43 56.7 °F /  13.7 °C 45.5 °F /  7.5 °C 30.2in /  1021.3hPa Calm   1mph /  1.6km/h 66% 0in /  0.0mm 0 W/m2
05:49 56.5 °F /  13.6 °C 45.3 °F /  7.4 °C 30.2in /  1021.3hPa Calm   2mph /  3.2km/h 66% 0in /  0.0mm 0 W/m2
05:54 56.5 °F /  13.6 °C 45.3 °F /  7.4 °C 30.2in /  1021.3hPa Calm   2mph /  3.2km/h 66% 0in /  0.0mm 0 W/m2
05:59 56.3 °F /  13.5 °C 45.5 °F /  7.5 °C 30.2in /  1021.3hPa NW 2mph /  3.2km/h 4mph /  6.4km/h 67% 0in /  0.0mm 5 W/m2
06:04 56.5 °F /  13.6 °C 45.7 °F /  7.6 °C 30.2in /  1021.3hPa West 2mph /  3.2km/h 4mph /  6.4km/h 67% 0in /  0.0mm 7 W/m2
06:09 56.5 °F /  13.6 °C 45.7 °F /  7.6 °C 30.2in /  1021.3hPa WNW 2.9mph /  4.7km/h 3mph /  4.8km/h 67% 0in /  0.0mm 9 W/m2
06:14 56.5 °F /  13.6 °C 45.7 °F /  7.6 °C 30.2in /  1021.3hPa West 0.9mph /  1.4km/h 3mph /  4.8km/h 67% 0in /  0.0mm 11 W/m2
06:19 56.7 °F /  13.7 °C 45.9 °F /  7.7 °C 30.2in /  1021.3hPa WNW 2.9mph /  4.7km/h 3mph /  4.8km/h 67% 0in /  0.0mm 12 W/m2
06:24 56.7 °F /  13.7 °C 45.9 °F /  7.7 °C 30.2in /  1021.3hPa WNW 0.9mph /  1.4km/h 2mph /  3.2km/h 67% 0in /  0.0mm 14 W/m2
06:29 56.7 °F /  13.7 °C 46.2 °F /  7.9 °C 30.2in /  1021.3hPa Calm   1mph /  1.6km/h 68% 0in /  0.0mm 18 W/m2
06:34 56.7 °F /  13.7 °C 46.2 °F /  7.9 °C 30.2in /  1021.3hPa WNW 0.9mph /  1.4km/h 2mph /  3.2km/h 68% 0in /  0.0mm 19 W/m2
06:39 56.7 °F /  13.7 °C 46.2 °F /  7.9 °C 30.2in /  1021.3hPa NNW 0.9mph /  1.4km/h 2mph /  3.2km/h 68% 0in /  0.0mm 21 W/m2
06:44 56.7 °F /  13.7 °C 46.2 °F /  7.9 °C 30.2in /  1021.3hPa NNW 0.9mph /  1.4km/h 3mph /  4.8km/h 68% 0in /  0.0mm 23 W/m2
06:49 56.8 °F /  13.8 °C 46.4 °F /  8 °C 30.2in /  1021.3hPa WSW 2.9mph /  4.7km/h 4mph /  6.4km/h 68% 0in /  0.0mm 23 W/m2
06:54 56.8 °F /  13.8 °C 46.4 °F /  8 °C 30.2in /  1021.3hPa West 0.9mph /  1.4km/h 2mph /  3.2km/h 68% 0in /  0.0mm 25 W/m2
06:59 56.8 °F /  13.8 °C 46.4 °F /  8 °C 30.2in /  1021.3hPa North 2mph /  3.2km/h 2mph /  3.2km/h 68% 0in /  0.0mm 26 W/m2
07:04 56.8 °F /  13.8 °C 46.4 °F /  8 °C 30.2in /  1021.3hPa SSW 2mph /  3.2km/h 2mph /  3.2km/h 68% 0in /  0.0mm 28 W/m2
07:09 56.8 °F /  13.8 °C 46.4 °F /  8 °C 30.2in /  1021.3hPa NE 2.9mph /  4.7km/h 4mph /  6.4km/h 68% 0in /  0.0mm 28 W/m2
07:14 57 °F /  13.9 °C 46.6 °F /  8.1 °C 30.2in /  1021.3hPa West 2mph /  3.2km/h 3mph /  4.8km/h 68% 0in /  0.0mm 30 W/m2
07:19 57.2 °F /  14 °C 46.8 °F /  8.2 °C 30.2in /  1021.3hPa NNE 2mph /  3.2km/h 4mph /  6.4km/h 68% 0in /  0.0mm 32 W/m2
07:24 57.4 °F /  14.1 °C 46.9 °F /  8.3 °C 30.2in /  1021.3hPa NE 0.9mph /  1.4km/h 2mph /  3.2km/h 68% 0in /  0.0mm 32 W/m2
07:29 57.4 °F /  14.1 °C 46.9 °F /  8.3 °C 30.2in /  1021.3hPa NNE 0.9mph /  1.4km/h 7mph /  11.3km/h 68% 0in /  0.0mm 33 W/m2
07:34 57.6 °F /  14.2 °C 47.1 °F /  8.4 °C 30.2in /  1021.3hPa NW 0.9mph /  1.4km/h 2mph /  3.2km/h 68% 0in /  0.0mm 33 W/m2
07:39 57.6 °F /  14.2 °C 47.1 °F /  8.4 °C 30.2in /  1021.3hPa North 4mph /  6.4km/h 4mph /  6.4km/h 68% 0in /  0.0mm 35 W/m2
07:44 57.7 °F /  14.3 °C 47.3 °F /  8.5 °C 30.2in /  1021.3hPa South 0.9mph /  1.4km/h 4mph /  6.4km/h 68% 0in /  0.0mm 35 W/m2
07:49 57.9 °F /  14.4 °C 47.5 °F /  8.6 °C 30.2in /  1021.3hPa WSW 0.9mph /  1.4km/h 3mph /  4.8km/h 68% 0in /  0.0mm 37 W/m2
07:54 57.9 °F /  14.4 °C 47.5 °F /  8.6 °C 30.2in /  1021.3hPa North 4mph /  6.4km/h 4mph /  6.4km/h 68% 0in /  0.0mm 44 W/m2
07:59 58.3 °F /  14.6 °C 47.8 °F /  8.8 °C 30.2in /  1021.3hPa Calm   1mph /  1.6km/h 68% 0in /  0.0mm 214 W/m2
08:04 58.6 °F /  14.8 °C 48.2 °F /  9 °C 30.2in /  1021.3hPa Calm   2mph /  3.2km/h 68% 0in /  0.0mm 234 W/m2
08:09 59.2 °F /  15.1 °C 48.2 °F /  9 °C 30.2in /  1021.3hPa NE 0.9mph /  1.4km/h 2mph /  3.2km/h 67% 0in /  0.0mm 250 W/m2
08:14 59.5 °F /  15.3 °C 48.2 °F /  9 °C 30.2in /  1021.3hPa NNW 2.9mph /  4.7km/h 3mph /  4.8km/h 66% 0in /  0.0mm 262 W/m2
08:19 60.1 °F /  15.6 °C 48.2 °F /  9 °C 30.2in /  1021.3hPa ENE 0.9mph /  1.4km/h 2mph /  3.2km/h 65% 0in /  0.0mm 278 W/m2
08:24 60.4 °F /  15.8 °C 48.6 °F /  9.2 °C 30.2in /  1021.3hPa Calm   4mph /  6.4km/h 65% 0in /  0.0mm 269 W/m2
08:29 60.8 °F /  16 °C 48.6 °F /  9.2 °C 30.2in /  1021.3hPa NNE 0.9mph /  1.4km/h 5mph /  8km/h 64% 0in /  0.0mm 165 W/m2
08:34 61.5 °F /  16.4 °C 48.7 °F /  9.3 °C 30.2in /  1021.3hPa NE 0.9mph /  1.4km/h 4mph /  6.4km/h 63% 0in /  0.0mm 56 W/m2
08:39 61.7 °F /  16.5 °C 48.6 °F /  9.2 °C 30.2in /  1021.3hPa Calm   5mph /  8km/h 62% 0in /  0.0mm 47 W/m2
08:44 61.9 °F /  16.6 °C 49.1 °F /  9.5 °C 30.2in /  1021.3hPa NE 2mph /  3.2km/h 3mph /  4.8km/h 63% 0in /  0.0mm 47 W/m2
08:49 62.2 °F /  16.8 °C 49.1 °F /  9.5 °C 30.2in /  1021.3hPa SE 2mph /  3.2km/h 3mph /  4.8km/h 62% 0in /  0.0mm 46 W/m2
08:54 62.8 °F /  17.1 °C 49.6 °F /  9.8 °C 30.2in /  1021.0hPa ESE 2mph /  3.2km/h 2mph /  3.2km/h 62% 0in /  0.0mm 47 W/m2
08:59 63.1 °F /  17.3 °C 49.5 °F /  9.7 °C 30.2in /  1021.0hPa NE 2mph /  3.2km/h 3mph /  4.8km/h 61% 0in /  0.0mm 47 W/m2
09:04 63.7 °F /  17.6 °C 49.5 °F /  9.7 °C 30.2in /  1021.3hPa Calm   2mph /  3.2km/h 60% 0in /  0.0mm 49 W/m2
09:09 63.9 °F /  17.7 °C 49.6 °F /  9.8 °C 30.2in /  1021.3hPa NNW 2mph /  3.2km/h 7mph /  11.3km/h 60% 0in /  0.0mm 51 W/m2
09:14 63.9 °F /  17.7 °C 49.3 °F /  9.6 °C 30.2in /  1021.3hPa NNW 0.9mph /  1.4km/h 2mph /  3.2km/h 59% 0in /  0.0mm 56 W/m2
09:19 63.9 °F /  17.7 °C 50.2 °F /  10.1 °C 30.2in /  1021.3hPa North 0.9mph /  1.4km/h 6mph /  9.7km/h 61% 0in /  0.0mm 234 W/m2
09:24 64.2 °F /  17.9 °C 49.6 °F /  9.8 °C 30.2in /  1021.0hPa East 0.9mph /  1.4km/h 4mph /  6.4km/h 59% 0in /  0.0mm 427 W/m2
09:29 64.9 °F /  18.3 °C 50.2 °F /  10.1 °C 30.2in /  1021.0hPa SE 0.9mph /  1.4km/h 3mph /  4.8km/h 59% 0in /  0.0mm 466 W/m2
09:34 65.3 °F /  18.5 °C 50.2 °F /  10.1 °C 30.2in /  1021.0hPa ESE 0.9mph /  1.4km/h 2mph /  3.2km/h 58% 0in /  0.0mm 483 W/m2
09:39 65.8 °F /  18.8 °C 50.2 °F /  10.1 °C 30.2in /  1021.0hPa ESE 0.9mph /  1.4km/h 2mph /  3.2km/h 57% 0in /  0.0mm 510 W/m2
09:44 66.2 °F /  19 °C 50 °F /  10 °C 30.2in /  1021.0hPa ENE 2mph /  3.2km/h 4mph /  6.4km/h 56% 0in /  0.0mm 503 W/m2
09:49 66.6 °F /  19.2 °C 49.8 °F /  9.9 °C 30.2in /  1021.0hPa ENE 2mph /  3.2km/h 7mph /  11.3km/h 55% 0in /  0.0mm 534 W/m2
09:54 67.1 °F /  19.5 °C 49.8 °F /  9.9 °C 30.2in /  1021.0hPa ESE 0.9mph /  1.4km/h 6mph /  9.7km/h 54% 0in /  0.0mm 482 W/m2
09:59 67.5 °F /  19.7 °C 49.3 °F /  9.6 °C 30.2in /  1021.0hPa ENE 0.9mph /  1.4km/h 7mph /  11.3km/h 52% 0in /  0.0mm 519 W/m2
10:04 67.5 °F /  19.7 °C 49.3 °F /  9.6 °C 30.2in /  1021.0hPa ESE 4mph /  6.4km/h 5mph /  8km/h 52% 0in /  0.0mm 121 W/m2
10:09 67.8 °F /  19.9 °C 49.6 °F /  9.8 °C 30.2in /  1021.0hPa SSE 2.9mph /  4.7km/h 6mph /  9.7km/h 52% 0in /  0.0mm 121 W/m2
10:14 67.8 °F /  19.9 °C 49.6 °F /  9.8 °C 30.2in /  1021.0hPa ESE 0.9mph /  1.4km/h 3mph /  4.8km/h 52% 0in /  0.0mm 527 W/m2
10:19 68.2 °F /  20.1 °C 49.3 °F /  9.6 °C 30.1in /  1020.7hPa ENE 0.9mph /  1.4km/h 4mph /  6.4km/h 51% 0in /  0.0mm 538 W/m2
10:24 68.4 °F /  20.2 °C 49.5 °F /  9.7 °C 30.1in /  1020.7hPa NE 2mph /  3.2km/h 7mph /  11.3km/h 51% 0in /  0.0mm 603 W/m2
10:29 68.5 °F /  20.3 °C 49.6 °F /  9.8 °C 30.1in /  1020.7hPa NE 0.9mph /  1.4km/h 1mph /  1.6km/h 51% 0in /  0.0mm 550 W/m2
10:34 69.4 °F /  20.8 °C 49.5 °F /  9.7 °C 30.1in /  1020.7hPa NE 4.9mph /  7.9km/h 7mph /  11.3km/h 49% 0in /  0.0mm 603 W/m2
10:39 70 °F /  21.1 °C 49.5 °F /  9.7 °C 30.1in /  1020.7hPa NW 0.9mph /  1.4km/h 7mph /  11.3km/h 48% 0in /  0.0mm 652 W/m2
10:44 69.4 °F /  20.8 °C 48.9 °F /  9.4 °C 30.1in /  1020.7hPa Calm   5mph /  8km/h 48% 0in /  0.0mm 638 W/m2
10:49 69.6 °F /  20.9 °C 49.1 °F /  9.5 °C 30.1in /  1020.7hPa East 0.9mph /  1.4km/h 8mph /  12.9km/h 48% 0in /  0.0mm 673 W/m2
10:54 69.8 °F /  21 °C 49.8 °F /  9.9 °C 30.1in /  1020.7hPa ENE 0.9mph /  1.4km/h 6mph /  9.7km/h 49% 0in /  0.0mm 666 W/m2
10:59 70 °F /  21.1 °C 48.7 °F /  9.3 °C 30.1in /  1020.7hPa ENE 4mph /  6.4km/h 8mph /  12.9km/h 47% 0in /  0.0mm 654 W/m2
11:04 70.2 °F /  21.2 °C 50.2 °F /  10.1 °C 30.1in /  1020.7hPa ESE 0.9mph /  1.4km/h 3mph /  4.8km/h 49% 0in /  0.0mm 689 W/m2
11:09 70.5 °F /  21.4 °C 49.3 °F /  9.6 °C 30.1in /  1020.7hPa NNE 2mph /  3.2km/h 3mph /  4.8km/h 47% 0in /  0.0mm 696 W/m2
11:14 70.9 °F /  21.6 °C 49.1 °F /  9.5 °C 30.1in /  1020.7hPa ESE 2.9mph /  4.7km/h 4mph /  6.4km/h 46% 0in /  0.0mm 705 W/m2
11:19 71.1 °F /  21.7 °C 49.8 °F /  9.9 °C 30.1in /  1020.7hPa Calm   5mph /  8km/h 47% 0in /  0.0mm 717 W/m2
11:24 71.4 °F /  21.9 °C 49.6 °F /  9.8 °C 30.1in /  1020.3hPa Calm   1mph /  1.6km/h 46% 0in /  0.0mm 735 W/m2
11:29 71.8 °F /  22.1 °C 49.3 °F /  9.6 °C 30.1in /  1020.3hPa ENE 6mph /  9.7km/h 9mph /  14.5km/h 45% 0in /  0.0mm 738 W/m2
11:34 72.1 °F /  22.3 °C 49.6 °F /  9.8 °C 30.1in /  1020.3hPa SE 2mph /  3.2km/h 3mph /  4.8km/h 45% 0in /  0.0mm 763 W/m2
11:39 72.3 °F /  22.4 °C 48.6 °F /  9.2 °C 30.1in /  1020.3hPa ESE 2.9mph /  4.7km/h 9mph /  14.5km/h 43% 0in /  0.0mm 770 W/m2
11:44 72.7 °F /  22.6 °C 48.2 °F /  9 °C 30.1in /  1020.3hPa ENE 2.9mph /  4.7km/h 6mph /  9.7km/h 42% 0in /  0.0mm 782 W/m2
11:49 73.2 °F /  22.9 °C 48 °F /  8.9 °C 30.1in /  1020.3hPa North 2mph /  3.2km/h 3mph /  4.8km/h 41% 0in /  0.0mm 779 W/m2
11:54 73.6 °F /  23.1 °C 48.4 °F /  9.1 °C 30.1in /  1020.0hPa SSW 2mph /  3.2km/h 6mph /  9.7km/h 41% 0in /  0.0mm 796 W/m2
11:59 74.1 °F /  23.4 °C 48.9 °F /  9.4 °C 30.1in /  1020.0hPa ESE 4.9mph /  7.9km/h 6mph /  9.7km/h 41% 0in /  0.0mm 805 W/m2
12:04 74.3 °F /  23.5 °C 48.4 °F /  9.1 °C 30.1in /  1020.0hPa ENE 2.9mph /  4.7km/h 4mph /  6.4km/h 40% 0in /  0.0mm 803 W/m2
12:09 74.5 °F /  23.6 °C 47.8 °F /  8.8 °C 30.1in /  1020.0hPa NNW 0.9mph /  1.4km/h 3mph /  4.8km/h 39% 0in /  0.0mm 821 W/m2
12:14 74.5 °F /  23.6 °C 47.1 °F /  8.4 °C 30.1in /  1020.0hPa Calm   4mph /  6.4km/h 38% 0in /  0.0mm 816 W/m2
12:19 74.8 °F /  23.8 °C 48.2 °F /  9 °C 30.1in /  1020.0hPa ESE 4mph /  6.4km/h 4mph /  6.4km/h 39% 0in /  0.0mm 765 W/m2
12:24 75.4 °F /  24.1 °C 48.7 °F /  9.3 °C 30.1in /  1020.0hPa NNE 2mph /  3.2km/h 4mph /  6.4km/h 39% 0in /  0.0mm 817 W/m2
12:29 75.4 °F /  24.1 °C 48 °F /  8.9 °C 30.1in /  1020.0hPa NE 4mph /  6.4km/h 7mph /  11.3km/h 38% 0in /  0.0mm 823 W/m2
12:35 75.4 °F /  24.1 °C 48 °F /  8.9 °C 30.1in /  1020.0hPa NNE 2mph /  3.2km/h 4mph /  6.4km/h 38% 0in /  0.0mm 798 W/m2
12:40 75.6 °F /  24.2 °C 48.2 °F /  9 °C 30.1in /  1019.6hPa NE 4.9mph /  7.9km/h 6mph /  9.7km/h 38% 0in /  0.0mm 846 W/m2
12:45 76.1 °F /  24.5 °C 48 °F /  8.9 °C 30.1in /  1019.6hPa NNW 2mph /  3.2km/h 3mph /  4.8km/h 37% 0in /  0.0mm 819 W/m2
12:50 76.3 °F /  24.6 °C 48 °F /  8.9 °C 30.1in /  1019.6hPa SSE 2mph /  3.2km/h 2mph /  3.2km/h 37% 0in /  0.0mm 838 W/m2
12:55 76.8 °F /  24.9 °C 49.3 °F /  9.6 °C 30.1in /  1019.6hPa NW 2.9mph /  4.7km/h 6mph /  9.7km/h 38% 0in /  0.0mm 877 W/m2
13:00 77.5 °F /  25.3 °C 47.7 °F /  8.7 °C 30.1in /  1019.6hPa ESE 2mph /  3.2km/h 8mph /  12.9km/h 35% 0in /  0.0mm 905 W/m2
13:05 77.5 °F /  25.3 °C 47.7 °F /  8.7 °C 30.1in /  1019.3hPa NE 2.9mph /  4.7km/h 3mph /  4.8km/h 35% 0in /  0.0mm 891 W/m2
13:10 77.4 °F /  25.2 °C 47.5 °F /  8.6 °C 30.1in /  1019.3hPa SE 2mph /  3.2km/h 8mph /  12.9km/h 35% 0in /  0.0mm 904 W/m2
13:15 77.5 °F /  25.3 °C 47.7 °F /  8.7 °C 30.1in /  1019.3hPa ENE 2mph /  3.2km/h 6mph /  9.7km/h 35% 0in /  0.0mm 854 W/m2
13:20 77.7 °F /  25.4 °C 47.8 °F /  8.8 °C 30.1in /  1019.3hPa ENE 4.9mph /  7.9km/h 6mph /  9.7km/h 35% 0in /  0.0mm 803 W/m2
13:25 77.9 °F /  25.5 °C 48 °F /  8.9 °C 30.1in /  1019.3hPa ENE 2.9mph /  4.7km/h 3mph /  4.8km/h 35% 0in /  0.0mm 872 W/m2
13:30 77.5 °F /  25.3 °C 47.7 °F /  8.7 °C 30.1in /  1019.0hPa WNW 2mph /  3.2km/h 6mph /  9.7km/h 35% 0in /  0.0mm 888 W/m2
13:35 77.7 °F /  25.4 °C 48.6 °F /  9.2 °C 30.1in /  1019.0hPa Calm   1mph /  1.6km/h 36% 0in /  0.0mm 879 W/m2
13:40 78.1 °F /  25.6 °C 47.5 °F /  8.6 °C 30.1in /  1019.0hPa WSW 4mph /  6.4km/h 5mph /  8km/h 34% 0in /  0.0mm 881 W/m2
13:45 77.9 °F /  25.5 °C 47.3 °F /  8.5 °C 30.1in /  1019.0hPa WNW 2mph /  3.2km/h 3mph /  4.8km/h 34% 0in /  0.0mm 860 W/m2
13:50 77.9 °F /  25.5 °C 48 °F /  8.9 °C 30.1in /  1019.0hPa NNW 2.9mph /  4.7km/h 3mph /  4.8km/h 35% 0in /  0.0mm 875 W/m2
13:55 78.1 °F /  25.6 °C 47.5 °F /  8.6 °C 30.1in /  1019.0hPa NW 0.9mph /  1.4km/h 4mph /  6.4km/h 34% 0in /  0.0mm 891 W/m2
14:00 77.9 °F /  25.5 °C 46.4 °F /  8 °C 30.1in /  1019.0hPa NW 0.9mph /  1.4km/h 7mph /  11.3km/h 33% 0in /  0.0mm 875 W/m2
14:05 78.3 °F /  25.7 °C 47.7 °F /  8.7 °C 30.1in /  1019.0hPa NNW 4mph /  6.4km/h 4mph /  6.4km/h 34% 0in /  0.0mm 904 W/m2
14:10 78.3 °F /  25.7 °C 46.8 °F /  8.2 °C 30.1in /  1019.0hPa WNW 4.9mph /  7.9km/h 7mph /  11.3km/h 33% 0in /  0.0mm 898 W/m2
14:15 78.1 °F /  25.6 °C 46.6 °F /  8.1 °C 30.1in /  1018.6hPa West 2mph /  3.2km/h 4mph /  6.4km/h 33% 0in /  0.0mm 888 W/m2
14:20 78.3 °F /  25.7 °C 46.8 °F /  8.2 °C 30.1in /  1018.6hPa West 2.9mph /  4.7km/h 4mph /  6.4km/h 33% 0in /  0.0mm 721 W/m2
14:25 78.3 °F /  25.7 °C 46 °F /  7.8 °C 30.1in /  1018.6hPa West 2mph /  3.2km/h 7mph /  11.3km/h 32% 0in /  0.0mm 788 W/m2
14:30 78.1 °F /  25.6 °C 45.9 °F /  7.7 °C 30.1in /  1018.6hPa WSW 4mph /  6.4km/h 5mph /  8km/h 32% 0in /  0.0mm 879 W/m2
14:35 78.4 °F /  25.8 °C 47.7 °F /  8.7 °C 30.1in /  1018.6hPa ESE 2mph /  3.2km/h 7mph /  11.3km/h 34% 0in /  0.0mm 868 W/m2
14:40 79 °F /  26.1 °C 46.6 °F /  8.1 °C 30.1in /  1018.6hPa ENE 0.9mph /  1.4km/h 2mph /  3.2km/h 32% 0in /  0.0mm 819 W/m2
14:45 79.3 °F /  26.3 °C 46.9 °F /  8.3 °C 30.1in /  1018.6hPa NW 0.9mph /  1.4km/h 5mph /  8km/h 32% 0in /  0.0mm 882 W/m2
14:50 79.9 °F /  26.6 °C 47.3 °F /  8.5 °C 30.1in /  1018.6hPa ENE 2.9mph /  4.7km/h 6mph /  9.7km/h 32% 0in /  0.0mm 905 W/m2
14:55 80.6 °F /  27 °C 48 °F /  8.9 °C 30.1in /  1018.6hPa NNW 2.9mph /  4.7km/h 6mph /  9.7km/h 32% 0in /  0.0mm 886 W/m2
15:00 80.2 °F /  26.8 °C 47.7 °F /  8.7 °C 30.1in /  1018.3hPa NE 4mph /  6.4km/h 7mph /  11.3km/h 32% 0in /  0.0mm 847 W/m2
15:05 80.4 °F /  26.9 °C 47.8 °F /  8.8 °C 30.1in /  1018.3hPa West 2.9mph /  4.7km/h 5mph /  8km/h 32% 0in /  0.0mm 745 W/m2
15:10 80.4 °F /  26.9 °C 46.9 °F /  8.3 °C 30.1in /  1018.3hPa NW 2.9mph /  4.7km/h 3mph /  4.8km/h 31% 0in /  0.0mm 698 W/m2
15:15 80.2 °F /  26.8 °C 46.9 °F /  8.3 °C 30.1in /  1018.3hPa WSW 4.9mph /  7.9km/h 5mph /  8km/h 31% 0in /  0.0mm 701 W/m2
15:20 79.9 °F /  26.6 °C 47.3 °F /  8.5 °C 30.1in /  1018.3hPa WNW 2mph /  3.2km/h 3mph /  4.8km/h 32% 0in /  0.0mm 694 W/m2
15:25 79.9 °F /  26.6 °C 47.3 °F /  8.5 °C 30.1in /  1018.0hPa ESE 4mph /  6.4km/h 7mph /  11.3km/h 32% 0in /  0.0mm 789 W/m2
15:30 80.1 °F /  26.7 °C 46.8 °F /  8.2 °C 30.1in /  1018.0hPa East 2mph /  3.2km/h 7mph /  11.3km/h 31% 0in /  0.0mm 849 W/m2
15:35 80.6 °F /  27 °C 48 °F /  8.9 °C 30.1in /  1018.0hPa ENE 2mph /  3.2km/h 4mph /  6.4km/h 32% 0in /  0.0mm 847 W/m2
15:40 81.3 °F /  27.4 °C 47.8 °F /  8.8 °C 30.1in /  1018.0hPa North 0.9mph /  1.4km/h 3mph /  4.8km/h 31% 0in /  0.0mm 833 W/m2
15:45 82 °F /  27.8 °C 48.4 °F /  9.1 °C 30.1in /  1018.0hPa North 0.9mph /  1.4km/h 5mph /  8km/h 31% 0in /  0.0mm 842 W/m2
15:50 82.2 °F /  27.9 °C 48.6 °F /  9.2 °C 30.1in /  1018.0hPa NE 2.9mph /  4.7km/h 8mph /  12.9km/h 31% 0in /  0.0mm 654 W/m2
15:55 81.9 °F /  27.7 °C 47.3 °F /  8.5 °C 30.1in /  1017.6hPa NE 4.9mph /  7.9km/h 9mph /  14.5km/h 30% 0in /  0.0mm 740 W/m2
16:00 81.9 °F /  27.7 °C 48.2 °F /  9 °C 30.1in /  1017.6hPa ENE 4.9mph /  7.9km/h 5mph /  8km/h 31% 0in /  0.0mm 763 W/m2
16:05 81.9 °F /  27.7 °C 46.4 °F /  8 °C 30.1in /  1017.6hPa North 2.9mph /  4.7km/h 8mph /  12.9km/h 29% 0in /  0.0mm 798 W/m2
16:10 81.1 °F /  27.3 °C 46.8 °F /  8.2 °C 30.1in /  1017.6hPa SSE 2mph /  3.2km/h 2mph /  3.2km/h 30% 0in /  0.0mm 791 W/m2
16:16 81.3 °F /  27.4 °C 46.9 °F /  8.3 °C 30.1in /  1017.6hPa ESE 0.9mph /  1.4km/h 5mph /  8km/h 30% 0in /  0.0mm 714 W/m2
16:21 81.5 °F /  27.5 °C 48.7 °F /  9.3 °C 30in /  1017.3hPa ENE 2mph /  3.2km/h 3mph /  4.8km/h 32% 0in /  0.0mm 705 W/m2
16:26 81.3 °F /  27.4 °C 46.9 °F /  8.3 °C 30in /  1017.3hPa NNE 2mph /  3.2km/h 9mph /  14.5km/h 30% 0in /  0.0mm 476 W/m2
16:31 81.1 °F /  27.3 °C 47.7 °F /  8.7 °C 30in /  1017.3hPa WNW 2.9mph /  4.7km/h 4mph /  6.4km/h 31% 0in /  0.0mm 722 W/m2
16:36 81.7 °F /  27.6 °C 47.3 °F /  8.5 °C 30in /  1017.3hPa NW 2.9mph /  4.7km/h 9mph /  14.5km/h 30% 0in /  0.0mm 687 W/m2
16:41 81.7 °F /  27.6 °C 48 °F /  8.9 °C 30in /  1017.3hPa NW 2.9mph /  4.7km/h 4mph /  6.4km/h 31% 0in /  0.0mm 599 W/m2
16:46 81.5 °F /  27.5 °C 47.1 °F /  8.4 °C 30in /  1017.3hPa NNW 2.9mph /  4.7km/h 4mph /  6.4km/h 30% 0in /  0.0mm 592 W/m2
16:51 81.7 °F /  27.6 °C 47.3 °F /  8.5 °C 30in /  1017.3hPa North 2mph /  3.2km/h 6mph /  9.7km/h 30% 0in /  0.0mm 580 W/m2
16:56 81.7 °F /  27.6 °C 47.3 °F /  8.5 °C 30in /  1017.3hPa Calm   3mph /  4.8km/h 30% 0in /  0.0mm 496 W/m2
17:01 81.9 °F /  27.7 °C 47.3 °F /  8.5 °C 30in /  1016.9hPa Calm   3mph /  4.8km/h 30% 0in /  0.0mm 436 W/m2
17:06 81.7 °F /  27.6 °C 46.4 °F /  8 °C 30in /  1016.9hPa NE 0.9mph /  1.4km/h 2mph /  3.2km/h 29% 0in /  0.0mm 578 W/m2
17:11 81.7 °F /  27.6 °C 47.3 °F /  8.5 °C 30in /  1016.9hPa NW 0.9mph /  1.4km/h 5mph /  8km/h 30% 0in /  0.0mm 598 W/m2
17:16 81.9 °F /  27.7 °C 47.3 °F /  8.5 °C 30in /  1016.9hPa ESE 2mph /  3.2km/h 3mph /  4.8km/h 30% 0in /  0.0mm 615 W/m2
17:21 81.9 °F /  27.7 °C 47.3 °F /  8.5 °C 30in /  1016.9hPa NNW 4mph /  6.4km/h 12mph /  19.3km/h 30% 0in /  0.0mm 626 W/m2
17:26 81.9 °F /  27.7 °C 46.4 °F /  8 °C 30in /  1016.9hPa North 4mph /  6.4km/h 5mph /  8km/h 29% 0in /  0.0mm 547 W/m2
17:31 81.5 °F /  27.5 °C 47.1 °F /  8.4 °C 30in /  1016.9hPa NW 2mph /  3.2km/h 10mph /  16.1km/h 30% 0in /  0.0mm 503 W/m2
17:36 81.1 °F /  27.3 °C 47.7 °F /  8.7 °C 30in /  1016.9hPa ENE 0.9mph /  1.4km/h 2mph /  3.2km/h 31% 0in /  0.0mm 234 W/m2
17:41 80.8 °F /  27.1 °C 46.4 °F /  8 °C 30in /  1016.9hPa WNW 2mph /  3.2km/h 7mph /  11.3km/h 30% 0in /  0.0mm 396 W/m2
17:46 81 °F /  27.2 °C 47.5 °F /  8.6 °C 30in /  1016.9hPa SSW 0.9mph /  1.4km/h 3mph /  4.8km/h 31% 0in /  0.0mm 605 W/m2
17:51 81.7 °F /  27.6 °C 47.3 °F /  8.5 °C 30in /  1016.6hPa East 2mph /  3.2km/h 5mph /  8km/h 30% 0in /  0.0mm 577 W/m2
17:56 82.2 °F /  27.9 °C 47.7 °F /  8.7 °C 30in /  1016.6hPa ENE 4.9mph /  7.9km/h 5mph /  8km/h 30% 0in /  0.0mm 471 W/m2
18:01 82 °F /  27.8 °C 46.6 °F /  8.1 °C 30in /  1016.6hPa North 2mph /  3.2km/h 3mph /  4.8km/h 29% 0in /  0.0mm 339 W/m2
18:06 81.9 °F /  27.7 °C 46.4 °F /  8 °C 30in /  1016.6hPa ENE 0.9mph /  1.4km/h 1mph /  1.6km/h 29% 0in /  0.0mm 534 W/m2
18:11 82 °F /  27.8 °C 46.6 °F /  8.1 °C 30in /  1016.6hPa ENE 2.9mph /  4.7km/h 5mph /  8km/h 29% 0in /  0.0mm 315 W/m2
18:16 81.9 °F /  27.7 °C 46.4 °F /  8 °C 30in /  1016.3hPa ENE 0.9mph /  1.4km/h 5mph /  8km/h 29% 0in /  0.0mm 343 W/m2
18:21 81.7 °F /  27.6 °C 46.4 °F /  8 °C 30in /  1016.3hPa ENE 4mph /  6.4km/h 6mph /  9.7km/h 29% 0in /  0.0mm 499 W/m2
18:26 81.7 °F /  27.6 °C 46.4 °F /  8 °C 30in /  1016.3hPa ENE 8.1mph /  13km/h 9mph /  14.5km/h 29% 0in /  0.0mm 452 W/m2
18:31 81.7 °F /  27.6 °C 46.4 °F /  8 °C 30in /  1016.3hPa North 4mph /  6.4km/h 4mph /  6.4km/h 29% 0in /  0.0mm 438 W/m2
18:36 81.3 °F /  27.4 °C 46 °F /  7.8 °C 30in /  1016.3hPa NNW 0.9mph /  1.4km/h 4mph /  6.4km/h 29% 0in /  0.0mm 427 W/m2
18:41 81.3 °F /  27.4 °C 46 °F /  7.8 °C 30in /  1016.3hPa NNW 4mph /  6.4km/h 6mph /  9.7km/h 29% 0in /  0.0mm 383 W/m2
18:46 81.7 °F /  27.6 °C 46.4 °F /  8 °C 30in /  1016.3hPa NNW 2mph /  3.2km/h 4mph /  6.4km/h 29% 0in /  0.0mm 348 W/m2
18:51 81.9 °F /  27.7 °C 46.4 °F /  8 °C 30in /  1016.3hPa WNW 2mph /  3.2km/h 6mph /  9.7km/h 29% 0in /  0.0mm 311 W/m2
18:56 81.9 °F /  27.7 °C 45.5 °F /  7.5 °C 30in /  1016.3hPa SW 0.9mph /  1.4km/h 3mph /  4.8km/h 28% 0in /  0.0mm 290 W/m2
19:01 81.7 °F /  27.6 °C 46.4 °F /  8 °C 30in /  1016.3hPa NNW 0.9mph /  1.4km/h 3mph /  4.8km/h 29% 0in /  0.0mm 272 W/m2
19:06 81.7 °F /  27.6 °C 45.3 °F /  7.4 °C 30in /  1016.3hPa ESE 2.9mph /  4.7km/h 3mph /  4.8km/h 28% 0in /  0.0mm 244 W/m2
19:11 81.5 °F /  27.5 °C 46.2 °F /  7.9 °C 30in /  1016.3hPa NE 2mph /  3.2km/h 5mph /  8km/h 29% 0in /  0.0mm 227 W/m2
19:16 81.3 °F /  27.4 °C 45.1 °F /  7.3 °C 30in /  1016.3hPa ENE 2.9mph /  4.7km/h 4mph /  6.4km/h 28% 0in /  0.0mm 220 W/m2
19:21 81.1 °F /  27.3 °C 45 °F /  7.2 °C 30in /  1016.3hPa ENE 4.9mph /  7.9km/h 5mph /  8km/h 28% 0in /  0.0mm 223 W/m2
19:26 81.1 °F /  27.3 °C 45.9 °F /  7.7 °C 30in /  1016.3hPa WNW 2mph /  3.2km/h 4mph /  6.4km/h 29% 0in /  0.0mm 237 W/m2
19:31 81 °F /  27.2 °C 45.7 °F /  7.6 °C 30in /  1016.3hPa WNW 2.9mph /  4.7km/h 4mph /  6.4km/h 29% 0in /  0.0mm 246 W/m2
19:36 80.8 °F /  27.1 °C 45.5 °F /  7.5 °C 30in /  1016.3hPa NE 0.9mph /  1.4km/h 5mph /  8km/h 29% 0in /  0.0mm 241 W/m2
19:41 80.8 °F /  27.1 °C 45.5 °F /  7.5 °C 30in /  1016.3hPa NNW 2.9mph /  4.7km/h 4mph /  6.4km/h 29% 0in /  0.0mm 229 W/m2
19:46 80.8 °F /  27.1 °C 46.4 °F /  8 °C 30in /  1016.3hPa NW 2mph /  3.2km/h 3mph /  4.8km/h 30% 0in /  0.0mm 214 W/m2
19:51 80.8 °F /  27.1 °C 46.4 °F /  8 °C 30in /  1016.3hPa ENE 2mph /  3.2km/h 2mph /  3.2km/h 30% 0in /  0.0mm 192 W/m2
19:56 80.8 °F /  27.1 °C 46.4 °F /  8 °C 30in /  1016.3hPa Calm   2mph /  3.2km/h 30% 0in /  0.0mm 165 W/m2
20:01 81 °F /  27.2 °C 45.7 °F /  7.6 °C 30in /  1016.3hPa NNW 2mph /  3.2km/h 4mph /  6.4km/h 29% 0in /  0.0mm 137 W/m2
20:06 80.4 °F /  26.9 °C 45.3 °F /  7.4 °C 30in /  1016.3hPa WNW 0.9mph /  1.4km/h 3mph /  4.8km/h 29% 0in /  0.0mm 127 W/m2
20:11 80.1 °F /  26.7 °C 46.8 °F /  8.2 °C 30in /  1016.3hPa ESE 2mph /  3.2km/h 3mph /  4.8km/h 31% 0in /  0.0mm 123 W/m2
20:16 79.9 °F /  26.6 °C 46.6 °F /  8.1 °C 30in /  1016.3hPa NW 2mph /  3.2km/h 4mph /  6.4km/h 31% 0in /  0.0mm 118 W/m2
20:21 79.5 °F /  26.4 °C 46.2 °F /  7.9 °C 30in /  1016.3hPa WNW 0.9mph /  1.4km/h 2mph /  3.2km/h 31% 0in /  0.0mm 104 W/m2
20:26 79.2 °F /  26.2 °C 45.9 °F /  7.7 °C 30in /  1016.3hPa NNW 0.9mph /  1.4km/h 4mph /  6.4km/h 31% 0in /  0.0mm 93 W/m2
20:31 78.8 °F /  26 °C 46.4 °F /  8 °C 30in /  1016.3hPa NE 0.9mph /  1.4km/h 3mph /  4.8km/h 32% 0in /  0.0mm 79 W/m2
20:36 78.3 °F /  25.7 °C 46.8 °F /  8.2 °C 30in /  1016.3hPa NW 2mph /  3.2km/h 4mph /  6.4km/h 33% 0in /  0.0mm 70 W/m2
20:41 77.9 °F /  25.5 °C 46.4 °F /  8 °C 30in /  1016.3hPa NNW 2mph /  3.2km/h 3mph /  4.8km/h 33% 0in /  0.0mm 51 W/m2
20:46 77.7 °F /  25.4 °C 47.1 °F /  8.4 °C 30in /  1016.3hPa NNW 0.9mph /  1.4km/h 1mph /  1.6km/h 34% 0in /  0.0mm 47 W/m2
20:51 77.5 °F /  25.3 °C 46.9 °F /  8.3 °C 30in /  1016.3hPa Calm   2mph /  3.2km/h 34% 0in /  0.0mm 33 W/m2
20:56 77.2 °F /  25.1 °C 46.6 °F /  8.1 °C 30in /  1016.3hPa WNW 0.9mph /  1.4km/h 3mph /  4.8km/h 34% 0in /  0.0mm 32 W/m2
21:01 77 °F /  25 °C 47.3 °F /  8.5 °C 30in /  1016.3hPa NW 0.9mph /  1.4km/h 2mph /  3.2km/h 35% 0in /  0.0mm 26 W/m2
21:06 76.6 °F /  24.8 °C 47.7 °F /  8.7 °C 30in /  1016.6hPa NW 0.9mph /  1.4km/h 1mph /  1.6km/h 36% 0in /  0.0mm 19 W/m2
21:11 75.9 °F /  24.4 °C 47.8 °F /  8.8 °C 30in /  1016.3hPa WNW 0.9mph /  1.4km/h 2mph /  3.2km/h 37% 0in /  0.0mm 12 W/m2
21:16 75 °F /  23.9 °C 48.4 °F /  9.1 °C 30in /  1016.6hPa Calm   1mph /  1.6km/h 39% 0in /  0.0mm 11 W/m2
21:21 74.1 °F /  23.4 °C 48.2 °F /  9 °C 30in /  1016.6hPa Calm   2mph /  3.2km/h 40% 0in /  0.0mm 7 W/m2
21:26 73.4 °F /  23 °C 47.7 °F /  8.7 °C 30in /  1016.6hPa WNW 0.9mph /  1.4km/h 1mph /  1.6km/h 40% 0in /  0.0mm 5 W/m2
21:32 72.9 °F /  22.7 °C 47.8 °F /  8.8 °C 30in /  1016.6hPa WSW 2mph /  3.2km/h 3mph /  4.8km/h 41% 0in /  0.0mm 0 W/m2
21:37 72.1 °F /  22.3 °C 47.8 °F /  8.8 °C 30in /  1016.6hPa West 2mph /  3.2km/h 4mph /  6.4km/h 42% 0in /  0.0mm 0 W/m2
21:42 72 °F /  22.2 °C 48.2 °F /  9 °C 30in /  1016.9hPa WNW 0.9mph /  1.4km/h 3mph /  4.8km/h 43% 0in /  0.0mm 0 W/m2
21:47 71.4 °F /  21.9 °C 48.4 °F /  9.1 °C 30in /  1016.9hPa West 2.9mph /  4.7km/h 4mph /  6.4km/h 44% 0in /  0.0mm 0 W/m2
21:52 71.1 °F /  21.7 °C 48.6 °F /  9.2 °C 30in /  1016.9hPa West 2mph /  3.2km/h 2mph /  3.2km/h 45% 0in /  0.0mm 0 W/m2
21:57 70.9 °F /  21.6 °C 49.1 °F /  9.5 °C 30in /  1016.9hPa West 2.9mph /  4.7km/h 4mph /  6.4km/h 46% 0in /  0.0mm 0 W/m2
22:02 70.7 °F /  21.5 °C 49.5 °F /  9.7 °C 30in /  1016.9hPa NW 2.9mph /  4.7km/h 7mph /  11.3km/h 47% 0in /  0.0mm 0 W/m2
22:07 70.9 °F /  21.6 °C 50.2 °F /  10.1 °C 30in /  1016.9hPa North 4mph /  6.4km/h 9mph /  14.5km/h 48% 0in /  0.0mm 0 W/m2
22:12 71.1 °F /  21.7 °C 50.4 °F /  10.2 °C 30in /  1016.9hPa NW 2mph /  3.2km/h 5mph /  8km/h 48% 0in /  0.0mm 0 W/m2
22:17 71.1 °F /  21.7 °C 50.9 °F /  10.5 °C 30in /  1016.9hPa WNW 9mph /  14.5km/h 9mph /  14.5km/h 49% 0in /  0.0mm 0 W/m2
22:22 70.9 °F /  21.6 °C 50.7 °F /  10.4 °C 30in /  1016.9hPa West 2.9mph /  4.7km/h 5mph /  8km/h 49% 0in /  0.0mm 0 W/m2
22:27 70.7 °F /  21.5 °C 51.1 °F /  10.6 °C 30in /  1016.9hPa NNW 2mph /  3.2km/h 10mph /  16.1km/h 50% 0in /  0.0mm 0 W/m2
22:32 70.5 °F /  21.4 °C 50.9 °F /  10.5 °C 30in /  1016.9hPa WNW 2mph /  3.2km/h 5mph /  8km/h 50% 0in /  0.0mm 0 W/m2
22:37 70.5 °F /  21.4 °C 51.4 °F /  10.8 °C 30in /  1016.9hPa NW 0.9mph /  1.4km/h 8mph /  12.9km/h 51% 0in /  0.0mm 0 W/m2
22:42 70.3 °F /  21.3 °C 51.8 °F /  11 °C 30in /  1016.9hPa West 2mph /  3.2km/h 4mph /  6.4km/h 52% 0in /  0.0mm 0 W/m2
22:47 70.2 °F /  21.2 °C 51.8 °F /  11 °C 30in /  1016.9hPa West 2.9mph /  4.7km/h 4mph /  6.4km/h 52% 0in /  0.0mm 0 W/m2
22:52 70 °F /  21.1 °C 52 °F /  11.1 °C 30in /  1016.9hPa NW 2.9mph /  4.7km/h 7mph /  11.3km/h 53% 0in /  0.0mm 0 W/m2
22:57 69.6 °F /  20.9 °C 51.8 °F /  11 °C 30in /  1016.9hPa WSW 4mph /  6.4km/h 4mph /  6.4km/h 53% 0in /  0.0mm 0 W/m2
23:02 69.4 °F /  20.8 °C 52.2 °F /  11.2 °C 30in /  1016.9hPa WNW 2.9mph /  4.7km/h 7mph /  11.3km/h 54% 0in /  0.0mm 0 W/m2
23:07 69.3 °F /  20.7 °C 52 °F /  11.1 °C 30in /  1017.3hPa WNW 2mph /  3.2km/h 4mph /  6.4km/h 54% 0in /  0.0mm 0 W/m2
23:12 69.1 °F /  20.6 °C 52.2 °F /  11.2 °C 30in /  1017.3hPa WNW 2mph /  3.2km/h 3mph /  4.8km/h 55% 0in /  0.0mm 0 W/m2
23:17 68.7 °F /  20.4 °C 52.3 °F /  11.3 °C 30in /  1017.3hPa Calm   4mph /  6.4km/h 56% 0in /  0.0mm 0 W/m2
23:22 68.5 °F /  20.3 °C 52.2 °F /  11.2 °C 30in /  1017.3hPa NNW 0.9mph /  1.4km/h 4mph /  6.4km/h 56% 0in /  0.0mm 0 W/m2
23:27 68.5 °F /  20.3 °C 52.2 °F /  11.2 °C 30in /  1017.3hPa NW 0.9mph /  1.4km/h 4mph /  6.4km/h 56% 0in /  0.0mm 0 W/m2
23:32 68.5 °F /  20.3 °C 52.2 °F /  11.2 °C 30in /  1017.3hPa North 2.9mph /  4.7km/h 9mph /  14.5km/h 56% 0in /  0.0mm 0 W/m2
23:37 68.4 °F /  20.2 °C 52.5 °F /  11.4 °C 30in /  1017.3hPa NW 2mph /  3.2km/h 3mph /  4.8km/h 57% 0in /  0.0mm 0 W/m2
23:42 68.2 °F /  20.1 °C 52.3 °F /  11.3 °C 30in /  1017.3hPa Calm   4mph /  6.4km/h 57% 0in /  0.0mm 0 W/m2
23:47 67.8 °F /  19.9 °C 52 °F /  11.1 °C 30in /  1017.3hPa NNW 2mph /  3.2km/h 7mph /  11.3km/h 57% 0in /  0.0mm 0 W/m2
23:57 67.5 °F /  19.7 °C 52.2 °F /  11.2 °C 30.1in /  1017.6hPa NNW 2mph /  3.2km/h 4mph /  6.4km/h 58% 0in /  0.0mm 0 W/m2
Juneau County Weather
Compliments of Weather Underground - 4 mb